Castle Valley, Utah
Current Conditions -  °F | °C
As of 5:53 AM on Saturday 20 Dec 2014 (Local Time) from KCNY Reporting Station
Overcast Overcast  
Wind Chill: 32°   Ceiling: 2600
Heat Index: 32°   Visibility: 8mi
Dew Point: 30°   Wind: 3mph
Humidity: 92%   Direction: 250°WSW
Pressure: 30.17"   Gusts: NA
Location:  38.6903°N, 109.256°W
Report Text: KCNY 201253Z AUTO 25003KT 8SM OVC026 00/M01 A3017 RMK AO2 SLP235 T00001011
Loading
Personal Weather Stations






























Interactive Weather Map New forecast layout! Learn more

10-Day Weather Forecast

Advertisements
Track Severe Weather on mobile